OJAM/ADJ METAR and TAF weather

Enter ICAO airport designator
Station Type Date Time Source
OJAM METAR 2019/12/08 01:00 UTC NOAA

OJAM 080100Z 00000KT 4000 BR FEW035 09/06 Q1017 NOSIG


Station Type Date Time Source
OJAM Decoded METAR 2019/12/08 01:00 UTC NOAA

Amman Airport, Jordan (OJAM) 31-59N 035-59E 768M
Dec 07, 2019 - 08:00 PM EST / 2019.12.08 0100 UTC
Wind: Calm:0
Visibility: 2 mile(s):0
Sky conditions: mostly clear
Weather: mist
Temperature: 48 F (9 C)
Dew Point: 42 F (6 C)
Relative Humidity: 81%
Pressure (altimeter): 30.03 in. Hg (1017 hPa)
ob: OJAM 080100Z 00000KT 4000 BR FEW035 09/06 Q1017 NOSIG
cycle: 1

Station Type Date Time Source
OJAM TAF 2019/12/07 18:51 UTC NOAA

TAF OJAM 071745Z 0718/0824 30014KT 6000 SCT030 PROB40 0802/0806 VRB02KT 2000 BR PROB30
TEMPO 0806/0810 26004KT 3000 -RA FEW020 SCT025
TEMPO 0810/0818 26018KT 2000 RA FEW020TCU BKN020

Example: see airport list